Lionhead Wind

STATION DOWN FOR SEASON

Located west of Lionhead Ridge near West Yellowstone. Same location as GNFAC station that reports snow depth, temp and RH which has data HERE. This data is also available to view at dataGarrison.com.

Elevation
8775ft
Jump to table bottom
Date Time Temperature
deg F
RH, % Wind Speed Wind Gust Wind Direction
04/01/21 08:48 0 5 9 S - 194
04/01/21 07:48 0 7 14 SW - 218
04/01/21 06:48 0 7 14 SW - 232
04/01/21 05:48 0 9 16 SW - 225
04/01/21 04:48 0 9 15 SW - 225
04/01/21 03:48 0 4 10 SW - 239
04/01/21 02:48 0 5 10 W - 264
04/01/21 01:48 0 7 16 W - 268
04/01/21 00:48 0 7 12 W - 254
03/31/21 23:48 0 10 16 SW - 213
03/31/21 22:48 0 11 17 SW - 222
03/31/21 21:48 0 9 14 SW - 212
03/31/21 20:48 0 8 16 SW - 236
03/31/21 19:48 0 6 10 SW - 236
03/31/21 18:48 0 7 15 S - 199
03/31/21 17:48 0 10 17 SW - 211
03/31/21 16:48 0 11 19 SW - 204
03/31/21 15:48 0 12 20 S - 198
03/31/21 14:48 0 13 22 S - 199
03/31/21 13:48 0 13 21 SW - 204
03/31/21 12:48 0 13 21 SW - 211
03/31/21 11:48 0 11 18 SW - 208
03/31/21 10:48 0 6 17 S - 190
03/31/21 09:48 0 6 10 SW - 212
03/31/21 08:48 0 3 7 S - 197
03/31/21 07:48 0 4 7 E - 108
03/31/21 06:48 0 2 6 NW - 298
03/31/21 05:48 0 3 8 NW - 299
03/31/21 04:48 0 7 17 NW - 303
03/31/21 03:48 0 9 18 W - 291
03/31/21 02:48 0 7 15 W - 286
03/31/21 01:48 0 7 14 W - 261
03/31/21 00:48 0 4 10 W - 254
03/30/21 23:48 0 7 13 W - 270
03/30/21 22:48 0 9 19 W - 278
03/30/21 21:48 0 12 20 W - 264
03/30/21 20:48 0 8 15 W - 278
03/30/21 19:48 0 7 16 W - 277
03/30/21 18:48 0 10 22 W - 275
03/30/21 17:48 0 9 20 W - 263
03/30/21 16:48 0 10 22 W - 251
03/30/21 15:48 0 11 20 W - 257
03/30/21 14:48 0 10 19 W - 256
03/30/21 13:48 0 11 21 SW - 243
03/30/21 12:48 0 10 19 W - 248
03/30/21 11:48 0 9 17 SW - 247
03/30/21 10:48 0 7 15 SW - 240
03/30/21 09:48 0 5 13 SW - 241
03/30/21 08:48 0 3 9 SW - 218
03/30/21 07:48 0 4 15 SW - 230